Observation data for Jayton on 01/11/2018      Previous  Date  Next       Current Mesonet Observations  Soil Data  Daily Summary Page  Observations in Plain Language
KJTS 110600Z 23016G25KT 13/02 A2961 RMK A01 T01330017  RH  046%=      5-min Rain = 0
KJTS 110605Z 23015G24KT 13/02 A2961 RMK A01 T01330016  RH  045%=      5-min Rain = 0
KJTS 110610Z 23016G27KT 13/02 A2961 RMK A01 T01340016  RH  045%=      5-min Rain = 0
KJTS 110615Z 23016G22KT 13/02 A2961 RMK A01 T01320015  RH  045%=      5-min Rain = 0
KJTS 110620Z 24018G25KT 13/01 A2961 RMK A01 T01330014  RH  045%=      5-min Rain = 0
KJTS 110625Z 24018G25KT 13/01 A2961 RMK A01 T01340014  RH  045%=      5-min Rain = 0
KJTS 110630Z 24019G25KT 13/01 A296 RMK A01 T01330014  RH  045%=      5-min Rain = 0
KJTS 110635Z 24017G22KT 13/01 A2961 RMK A01 T01340013  RH  044%=      5-min Rain = 0
KJTS 110640Z 24018G24KT 13/01 A296 RMK A01 T01340012  RH  044%=      5-min Rain = 0
KJTS 110645Z 24018G24KT 13/01 A296 RMK A01 T01340012  RH  044%=      5-min Rain = 0
KJTS 110650Z 24019G25KT 14/01 A296 RMK A01 T01350012  RH  044%=      5-min Rain = 0
KJTS 110655Z 24022G30KT 14/01 A296 RMK A01 T01360012  RH  043%=      5-min Rain = 0
KJTS 110700Z 24020G26KT 14/01 A296 RMK A01 T01350012  RH  044%=      5-min Rain = 0
KJTS 110705Z 24021G29KT 14/01 A296 RMK A01 T01350011  RH  043%=      5-min Rain = 0
KJTS 110710Z 24017G28KT 13/01 A296 RMK A01 T01340011  RH  044%=      5-min Rain = 0
KJTS 110715Z 24018G26KT 13/01 A296 RMK A01 T01330011  RH  044%=      5-min Rain = 0
KJTS 110720Z 23019G27KT 13/01 A296 RMK A01 T01340010  RH  044%=      5-min Rain = 0
KJTS 110725Z 23017G22KT 13/01 A296 RMK A01 T01320011  RH  044%=      5-min Rain = 0
KJTS 110730Z 23017G24KT 13/01 A296 RMK A01 T01310011  RH  044%=      5-min Rain = 0
KJTS 110735Z 23017G26KT 13/01 A296 RMK A01 T01320010  RH  044%=      5-min Rain = 0
KJTS 110740Z 23018G26KT 13/01 A296 RMK A01 T01310010  RH  044%=      5-min Rain = 0
KJTS 110745Z 23018G25KT 13/01 A296 RMK A01 T01310010  RH  044%=      5-min Rain = 0
KJTS 110750Z 23017G24KT 13/01 A296 RMK A01 T01300010  RH  044%=      5-min Rain = 0
KJTS 110755Z 23016G24KT 13/01 A296 RMK A01 T01290010  RH  045%=      5-min Rain = 0
KJTS 110800Z 24015G22KT 13/01 A2961 RMK A01 T01290010  RH  045%=      5-min Rain = 0
KJTS 110805Z 23018G23KT 13/01 A296 RMK A01 T01290009  RH  044%=      5-min Rain = 0
KJTS 110810Z 24016G21KT 13/01 A2961 RMK A01 T01290009  RH  044%=      5-min Rain = 0
KJTS 110815Z 24018G25KT 13/01 A2961 RMK A01 T01290008  RH  044%=      5-min Rain = 0
KJTS 110820Z 24018G26KT 13/01 A296 RMK A01 T01300008  RH  044%=      5-min Rain = 0
KJTS 110825Z 25017G25KT 13/01 A296 RMK A01 T01290008  RH  044%=      5-min Rain = 0
KJTS 110830Z 25018G24KT 13/01 A296 RMK A01 T01300007  RH  043%=      5-min Rain = 0
KJTS 110835Z 25017G24KT 13/01 A296 RMK A01 T01300007  RH  043%=      5-min Rain = 0
KJTS 110840Z 24017G22KT 13/01 A296 RMK A01 T01290006  RH  043%=      5-min Rain = 0
KJTS 110845Z 25016G22KT 13/01 A296 RMK A01 T01290006  RH  043%=      5-min Rain = 0
KJTS 110850Z 25018G25KT 13/01 A296 RMK A01 T01290006  RH  043%=      5-min Rain = 0
KJTS 110855Z 25018G25KT 13/01 A296 RMK A01 T01300005  RH  043%=      5-min Rain = 0
KJTS 110900Z 25017G25KT 13/01 A296 RMK A01 T01290005  RH  043%=      5-min Rain = 0
KJTS 110905Z 25018G25KT 13/01 A296 RMK A01 T01300005  RH  043%=      5-min Rain = 0
KJTS 110910Z 25019G28KT 13/01 A296 RMK A01 T01290005  RH  043%=      5-min Rain = 0
KJTS 110915Z 26017G25KT 13/01 A296 RMK A01 T01280005  RH  043%=      5-min Rain = 0
KJTS 110920Z 26016G23KT 13/01 A296 RMK A01 T01270005  RH  044%=      5-min Rain = 0
KJTS 110925Z 26016G23KT 13/01 A296 RMK A01 T01280005  RH  043%=      5-min Rain = 0
KJTS 110930Z 25017G26KT 13/01 A296 RMK A01 T01280005  RH  043%=      5-min Rain = 0
KJTS 110935Z 25016G23KT 13/01 A296 RMK A01 T01270005  RH  043%=      5-min Rain = 0
KJTS 110940Z 25017G25KT 13/01 A2961 RMK A01 T01260005  RH  044%=      5-min Rain = 0
KJTS 110945Z 25017G24KT 12/01 A2961 RMK A01 T01240005  RH  044%=      5-min Rain = 0
KJTS 110950Z 25016G26KT 12/00 A2961 RMK A01 T01240004  RH  044%=      5-min Rain = 0
KJTS 110955Z 26016G24KT 12/00 A2961 RMK A01 T01240004  RH  044%=      5-min Rain = 0
KJTS 111000Z 26017G26KT 13/00 A2961 RMK A01 T01250004  RH  044%=      5-min Rain = 0
KJTS 111005Z 26017G27KT 13/00 A2961 RMK A01 T01250004  RH  044%=      5-min Rain = 0
KJTS 111010Z 26017G25KT 12/00 A2961 RMK A01 T01240004  RH  044%=      5-min Rain = 0
KJTS 111015Z 26019G27KT 12/00 A2961 RMK A01 T01230004  RH  044%=      5-min Rain = 0
KJTS 111020Z 27018G26KT 12/01 A2962 RMK A01 T01230005  RH  045%=      5-min Rain = 0
KJTS 111025Z 27015G20KT 12/01 A2962 RMK A01 T01200005  RH  046%=      5-min Rain = 0
KJTS 111030Z 27015G20KT 12/01 A2963 RMK A01 T01180005  RH  046%=      5-min Rain = 0
KJTS 111035Z 27014G20KT 12/01 A2963 RMK A01 T01160005  RH  047%=      5-min Rain = 0
KJTS 111040Z 27015G22KT 12/01 A2963 RMK A01 T01150005  RH  047%=      5-min Rain = 0
KJTS 111045Z 27015G24KT 12/01 A2963 RMK A01 T01160005  RH  047%=      5-min Rain = 0
KJTS 111050Z 27016G23KT 12/01 A2963 RMK A01 T01170005  RH  047%=      5-min Rain = 0
KJTS 111055Z 27014G19KT 12/01 A2964 RMK A01 T01170005  RH  047%=      5-min Rain = 0
KJTS 111100Z 28014G19KT 12/01 A2964 RMK A01 T01170005  RH  047%=      5-min Rain = 0
KJTS 111105Z 28015G21KT 12/01 A2964 RMK A01 T01180007  RH  047%=      5-min Rain = 0
KJTS 111110Z 28013G18KT 12/01 A2964 RMK A01 T01180007  RH  047%=      5-min Rain = 0
KJTS 111115Z 28014G20KT 12/01 A2964 RMK A01 T01160007  RH  047%=      5-min Rain = 0
KJTS 111120Z 29015G20KT 12/01 A2964 RMK A01 T01170007  RH  047%=      5-min Rain = 0
KJTS 111125Z 29014G19KT 12/01 A2965 RMK A01 T01160007  RH  048%=      5-min Rain = 0
KJTS 111130Z 30015G20KT 11/01 A2965 RMK A01 T01140010  RH  049%=      5-min Rain = 0
KJTS 111135Z 30015G20KT 11/01 A2966 RMK A01 T01130010  RH  050%=      5-min Rain = 0
KJTS 111140Z 30015G20KT 11/01 A2966 RMK A01 T01110011  RH  050%=      5-min Rain = 0
KJTS 111145Z 30016G21KT 11/01 A2967 RMK A01 T01100014  RH  052%=      5-min Rain = 0
KJTS 111150Z 31017G22KT 11/02 A2968 RMK A01 T01110021  RH  054%=      5-min Rain = 0
KJTS 111155Z 33018G24KT 11/02 A2969 RMK A01 T01120022  RH  055%=      5-min Rain = 0
KJTS 111200Z 34022G30KT 10/02 A2971 RMK A01 T01030015  RH  055%=      5-min Rain = 0
KJTS 111205Z 34020G29KT 10/01 A2972 RMK A01 T00980014  RH  057%=      5-min Rain = 0
KJTS 111210Z 34022G30KT 10/01 A2972 RMK A01 T00950011  RH  056%=      5-min Rain = 0
KJTS 111215Z 34023G31KT 09/01 A2973 RMK A01 T00920008  RH  056%=      5-min Rain = 0
KJTS 111220Z 34023G30KT 09/01 A2974 RMK A01 T00880006  RH  057%=      5-min Rain = 0
KJTS 111225Z 34022G27KT 08/00 A2975 RMK A01 T00840004  RH  058%=      5-min Rain = 0
KJTS 111230Z 33020G27KT 08/00 A2975 RMK A01 T00810003  RH  058%=      5-min Rain = 0
KJTS 111235Z 33019G27KT 08/00 A2976 RMK A01 T00790002  RH  059%=      5-min Rain = 0
KJTS 111240Z 34022G28KT 08/M00 A2977 RMK A01 T00771001  RH  059%=      5-min Rain = 0
KJTS 111245Z 33020G27KT 07/M00 A2978 RMK A01 T00731004  RH  059%=      5-min Rain = 0
KJTS 111250Z 33022G31KT 07/M01 A2979 RMK A01 T00661013  RH  058%=      5-min Rain = 0
KJTS 111255Z 33023G31KT 06/M02 A298 RMK A01 T00601016  RH  059%=      5-min Rain = 0
KJTS 111300Z 34021G27KT 06/M02 A298 RMK A01 T00581017  RH  059%=      5-min Rain = 0
KJTS 111305Z 34017G27KT 06/M02 A2981 RMK A01 T00581017  RH  059%=      5-min Rain = 0
KJTS 111310Z 33019G26KT 06/M02 A2982 RMK A01 T00571017  RH  059%=      5-min Rain = 0
KJTS 111315Z 33019G24KT 06/M02 A2982 RMK A01 T00551017  RH  060%=      5-min Rain = 0
KJTS 111320Z 34022G32KT 05/M02 A2983 RMK A01 T00531017  RH  061%=      5-min Rain = 0
KJTS 111325Z 34021G29KT 05/M02 A2983 RMK A01 T00521017  RH  062%=      5-min Rain = 0
KJTS 111330Z 34016G21KT 05/M02 A2984 RMK A01 T00511017  RH  062%=      5-min Rain = 0
KJTS 111335Z 34018G24KT 05/M02 A2984 RMK A01 T00511017  RH  062%=      5-min Rain = 0
KJTS 111340Z 34017G24KT 05/M02 A2985 RMK A01 T00511017  RH  062%=      5-min Rain = 0
KJTS 111345Z 33020G25KT 05/M02 A2986 RMK A01 T00501017  RH  062%=      5-min Rain = 0
KJTS 111350Z 34022G36KT 05/M02 A2987 RMK A01 T00461022  RH  062%=      5-min Rain = 0
KJTS 111355Z 35019G26KT 04/M02 A2987 RMK A01 T00431024  RH  062%=      5-min Rain = 0
KJTS 111400Z 34017G28KT 04/M02 A2988 RMK A01 T00421024  RH  063%=      5-min Rain = 0
KJTS 111405Z 33020G26KT 04/M03 A2989 RMK A01 T00391027  RH  063%=      5-min Rain = 0
KJTS 111410Z 34019G27KT 04/M03 A299 RMK A01 T00381028  RH  063%=      5-min Rain = 0
KJTS 111415Z 35022G29KT 04/M03 A299 RMK A01 T00361030  RH  063%=      5-min Rain = 0
KJTS 111420Z 35020G27KT 04/M03 A2991 RMK A01 T00351031  RH  063%=      5-min Rain = 0
KJTS 111425Z 34019G27KT 04/M03 A2991 RMK A01 T00351032  RH  062%=      5-min Rain = 0
KJTS 111430Z 34023G30KT 03/M04 A2992 RMK A01 T00321038  RH  061%=      5-min Rain = 0
KJTS 111435Z 35025G33KT 03/M04 A2993 RMK A01 T00271043  RH  060%=      5-min Rain = 0
KJTS 111440Z 00027G34KT 03/M04 A2993 RMK A01 T00261043  RH  061%=      5-min Rain = 0
KJTS 111445Z 35022G33KT 03/M04 A2993 RMK A01 T00261044  RH  061%=      5-min Rain = 0
KJTS 111450Z 36018G24KT 03/M04 A2994 RMK A01 T00261044  RH  061%=      5-min Rain = 0
KJTS 111455Z 36020G27KT 03/M04 A2994 RMK A01 T00271043  RH  061%=      5-min Rain = 0
KJTS 111500Z 35019G24KT 03/M04 A2994 RMK A01 T00271043  RH  061%=      5-min Rain = 0
KJTS 111505Z 34019G27KT 03/M04 A2995 RMK A01 T00281042  RH  060%=      5-min Rain = 0
KJTS 111510Z 34020G27KT 03/M04 A2996 RMK A01 T00291042  RH  060%=      5-min Rain = 0
KJTS 111515Z 34016G21KT 03/M04 A2996 RMK A01 T00311041  RH  060%=      5-min Rain = 0
KJTS 111520Z 34017G25KT 03/M04 A2996 RMK A01 T00331042  RH  059%=      5-min Rain = 0
KJTS 111525Z 34025G34KT 03/M05 A2997 RMK A01 T00291046  RH  059%=      5-min Rain = 0
KJTS 111530Z 34025G33KT 02/M05 A2997 RMK A01 T00241049  RH  059%=      5-min Rain = 0
KJTS 111535Z 35025G33KT 02/M05 A2998 RMK A01 T00241050  RH  059%=      5-min Rain = 0
KJTS 111540Z 35024G33KT 03/M05 A2998 RMK A01 T00251051  RH  058%=      5-min Rain = 0
KJTS 111545Z 35018G27KT 03/M05 A2999 RMK A01 T00291052  RH  056%=      5-min Rain = 0
KJTS 111550Z 35022G31KT 03/M05 A30 RMK A01 T00291052  RH  056%=      5-min Rain = 0
KJTS 111555Z 35020G28KT 03/M05 A30 RMK A01 T00321051  RH  055%=      5-min Rain = 0
KJTS 111600Z 35024G32KT 03/M05 A3001 RMK A01 T00331052  RH  054%=      5-min Rain = 0
KJTS 111605Z 35024G34KT 03/M05 A3002 RMK A01 T00341052  RH  054%=      5-min Rain = 0
KJTS 111610Z 35025G32KT 03/M05 A3002 RMK A01 T00321053  RH  055%=      5-min Rain = 0
KJTS 111615Z 00022G30KT 03/M05 A3003 RMK A01 T00311052  RH  055%=      5-min Rain = 0
KJTS 111620Z 35022G29KT 03/M05 A3003 RMK A01 T00311053  RH  055%=      5-min Rain = 0
KJTS 111625Z 36021G29KT 03/M05 A3004 RMK A01 T00321052  RH  055%=      5-min Rain = 0
KJTS 111630Z 36018G24KT 04/M05 A3004 RMK A01 T00381052  RH  052%=      5-min Rain = 0
KJTS 111635Z 36019G24KT 04/M05 A3005 RMK A01 T00371052  RH  053%=      5-min Rain = 0
KJTS 111640Z 35017G24KT 04/M05 A3005 RMK A01 T00361053  RH  053%=      5-min Rain = 0
KJTS 111645Z 34014G21KT 04/M05 A3006 RMK A01 T00371052  RH  052%=      5-min Rain = 0
KJTS 111650Z 34016G22KT 04/M05 A3007 RMK A01 T00391054  RH  051%=      5-min Rain = 0
KJTS 111655Z 35018G24KT 04/M06 A3007 RMK A01 T00371057  RH  051%=      5-min Rain = 0
KJTS 111700Z 34021G28KT 04/M06 A3008 RMK A01 T00351060  RH  050%=      5-min Rain = 0
KJTS 111705Z 35021G28KT 03/M06 A3008 RMK A01 T00341061  RH  050%=      5-min Rain = 0
KJTS 111710Z 34017G23KT 04/M06 A3008 RMK A01 T00361062  RH  050%=      5-min Rain = 0
KJTS 111715Z 33017G28KT 04/M06 A3008 RMK A01 T00381063  RH  048%=      5-min Rain = 0
KJTS 111720Z 34019G28KT 04/M07 A3008 RMK A01 T00361066  RH  048%=      5-min Rain = 0
KJTS 111725Z 34018G24KT 04/M07 A3009 RMK A01 T00361068  RH  047%=      5-min Rain = 0
KJTS 111730Z 34020G26KT 04/M07 A3009 RMK A01 T00381069  RH  046%=      5-min Rain = 0
KJTS 111735Z 35018KT 04/M07 A3009 RMK A01 T00411069  RH  045%=      5-min Rain = 0
KJTS 111740Z 34021G30KT 05/M07 A3009 RMK A01 T00471071  RH  042%=      5-min Rain = 0
KJTS 111745Z 35021G29KT 05/M07 A301 RMK A01 T00481073  RH  042%=      5-min Rain = 0
KJTS 111750Z 34022G31KT 05/M07 A3009 RMK A01 T00501074  RH  041%=      5-min Rain = 0
KJTS 111755Z 35020G25KT 05/M07 A301 RMK A01 T00471074  RH  042%=      5-min Rain = 0
KJTS 111800Z 36021G27KT 05/M07 A301 RMK A01 T00501073  RH  041%=      5-min Rain = 0
KJTS 111805Z 35021G27KT 05/M07 A301 RMK A01 T00541074  RH  040%=      5-min Rain = 0
KJTS 111810Z 35020G25KT 06/M08 A301 RMK A01 T00561075  RH  039%=      5-min Rain = 0
KJTS 111815Z 35020G29KT 06/M08 A301 RMK A01 T00611075  RH  037%=      5-min Rain = 0
KJTS 111820Z 36021G30KT 06/M08 A301 RMK A01 T00631077  RH  036%=      5-min Rain = 0
KJTS 111825Z 35019G26KT 07/M08 A301 RMK A01 T00661078  RH  035%=      5-min Rain = 0
KJTS 111830Z 34021G27KT 07/M08 A301 RMK A01 T00661081  RH  035%=      5-min Rain = 0
KJTS 111835Z 34019G25KT 07/M08 A301 RMK A01 T00661082  RH  034%=      5-min Rain = 0
KJTS 111840Z 34019G29KT 07/M09 A301 RMK A01 T00681085  RH  033%=      5-min Rain = 0
KJTS 111845Z 35019G26KT 07/M09 A301 RMK A01 T00701088  RH  032%=      5-min Rain = 0
KJTS 111850Z 35019G26KT 07/M09 A301 RMK A01 T00711091  RH  031%=      5-min Rain = 0
KJTS 111855Z 35019G26KT 08/M09 A301 RMK A01 T00751091  RH  030%=      5-min Rain = 0
KJTS 111900Z 34018G23KT 08/M09 A301 RMK A01 T00751091  RH  030%=      5-min Rain = 0
KJTS 111905Z 35017G24KT 08/M09 A301 RMK A01 T00791092  RH  029%=      5-min Rain = 0
KJTS 111910Z 34021G27KT 08/M09 A301 RMK A01 T00801094  RH  028%=      5-min Rain = 0
KJTS 111915Z 35019G26KT 08/M09 A301 RMK A01 T00801094  RH  028%=      5-min Rain = 0
KJTS 111920Z 34021G27KT 08/M10 A3011 RMK A01 T00811095  RH  028%=      5-min Rain = 0
KJTS 111925Z 34023G29KT 08/M10 A3011 RMK A01 T00811098  RH  027%=      5-min Rain = 0
KJTS 111930Z 35022G31KT 08/M10 A3011 RMK A01 T00831100  RH  026%=      5-min Rain = 0
KJTS 111935Z 35021G30KT 09/M10 A3011 RMK A01 T00851102  RH  026%=      5-min Rain = 0
KJTS 111940Z 36023G29KT 08/M10 A3011 RMK A01 T00831104  RH  026%=      5-min Rain = 0
KJTS 111945Z 36021G28KT 08/M10 A3011 RMK A01 T00831103  RH  026%=      5-min Rain = 0
KJTS 111950Z 36020G28KT 09/M10 A3011 RMK A01 T00861102  RH  026%=      5-min Rain = 0
KJTS 111955Z 35020G26KT 09/M10 A3011 RMK A01 T00891102  RH  025%=      5-min Rain = 0
KJTS 112000Z 35017G23KT 09/M11 A3011 RMK A01 T00911105  RH  024%=      5-min Rain = 0
KJTS 112005Z 35023G28KT 09/M11 A3012 RMK A01 T00881108  RH  024%=      5-min Rain = 0
KJTS 112010Z 36018G24KT 09/M11 A3011 RMK A01 T00901108  RH  024%=      5-min Rain = 0
KJTS 112015Z 35017G24KT 09/M11 A3011 RMK A01 T00931107  RH  024%=      5-min Rain = 0
KJTS 112020Z 34021G28KT 09/M11 A3012 RMK A01 T00931107  RH  023%=      5-min Rain = 0
KJTS 112025Z 35022G32KT 09/M11 A3012 RMK A01 T00911108  RH  024%=      5-min Rain = 0
KJTS 112030Z 34024G31KT 09/M11 A3012 RMK A01 T00891107  RH  024%=      5-min Rain = 0
KJTS 112035Z 34024G29KT 09/M11 A3013 RMK A01 T00881110  RH  024%=      5-min Rain = 0
KJTS 112040Z 35024G32KT 09/M11 A3013 RMK A01 T00851112  RH  024%=      5-min Rain = 0
KJTS 112045Z 35023G31KT 09/M11 A3013 RMK A01 T00851114  RH  023%=      5-min Rain = 0
KJTS 112050Z 36021G26KT 09/M11 A3013 RMK A01 T00861113  RH  023%=      5-min Rain = 0
KJTS 112055Z 35018G25KT 09/M11 A3013 RMK A01 T00911112  RH  023%=      5-min Rain = 0
KJTS 112100Z 35019G26KT 09/M11 A3013 RMK A01 T00921110  RH  023%=      5-min Rain = 0
KJTS 112105Z 35018G27KT 09/M11 A3014 RMK A01 T00921107  RH  024%=      5-min Rain = 0
KJTS 112110Z 34020G30KT 09/M11 A3014 RMK A01 T00911110  RH  023%=      5-min Rain = 0
KJTS 112115Z 34020G28KT 09/M11 A3014 RMK A01 T00921110  RH  023%=      5-min Rain = 0
KJTS 112120Z 34021G29KT 09/M11 A3014 RMK A01 T00911111  RH  023%=      5-min Rain = 0
KJTS 112125Z 35022G28KT 09/M11 A3015 RMK A01 T00911114  RH  023%=      5-min Rain = 0
KJTS 112130Z 35024G34KT 09/M12 A3015 RMK A01 T00901115  RH  022%=      5-min Rain = 0
KJTS 112135Z 35023G30KT 09/M12 A3015 RMK A01 T00891115  RH  023%=      5-min Rain = 0
KJTS 112140Z 36021G28KT 09/M12 A3015 RMK A01 T00891115  RH  023%=      5-min Rain = 0
KJTS 112145Z 36017G24KT 09/M12 A3015 RMK A01 T00931115  RH  022%=      5-min Rain = 0
KJTS 112150Z 36024G33KT 09/M12 A3015 RMK A01 T00921120  RH  021%=      5-min Rain = 0
KJTS 112155Z 00022G30KT 09/M12 A3016 RMK A01 T00911119  RH  022%=      5-min Rain = 0
KJTS 112200Z 01021G27KT 09/M12 A3016 RMK A01 T00891116  RH  022%=      5-min Rain = 0
KJTS 112205Z 36019G25KT 09/M11 A3016 RMK A01 T00891114  RH  023%=      5-min Rain = 0
KJTS 112210Z 36015G20KT 09/M11 A3016 RMK A01 T00911112  RH  023%=      5-min Rain = 0
KJTS 112215Z 35016G22KT 09/M11 A3017 RMK A01 T00931112  RH  023%=      5-min Rain = 0
KJTS 112220Z 36022G30KT 09/M12 A3017 RMK A01 T00921117  RH  022%=      5-min Rain = 0
KJTS 112225Z 36021G27KT 09/M12 A3018 RMK A01 T00881116  RH  023%=      5-min Rain = 0
KJTS 112230Z 35021G29KT 09/M12 A3018 RMK A01 T00881116  RH  023%=      5-min Rain = 0
KJTS 112235Z 35020G25KT 09/M12 A3018 RMK A01 T00881116  RH  023%=      5-min Rain = 0
KJTS 112240Z 00017G24KT 09/M12 A3018 RMK A01 T00891117  RH  022%=      5-min Rain = 0
KJTS 112245Z 01020G26KT 09/M12 A3018 RMK A01 T00861118  RH  023%=      5-min Rain = 0
KJTS 112250Z 01020KT 08/M12 A3019 RMK A01 T00831116  RH  023%=      5-min Rain = 0
KJTS 112255Z 00017KT 08/M12 A3019 RMK A01 T00821115  RH  024%=      5-min Rain = 0
KJTS 112300Z 35012KT 08/M11 A3019 RMK A01 T00831114  RH  024%=      5-min Rain = 0
KJTS 112305Z 36013G19KT 08/M11 A3019 RMK A01 T00831113  RH  024%=      5-min Rain = 0
KJTS 112310Z 35015G23KT 08/M11 A3019 RMK A01 T00821113  RH  024%=      5-min Rain = 0
KJTS 112315Z 35016G22KT 08/M11 A302 RMK A01 T00811113  RH  024%=      5-min Rain = 0
KJTS 112320Z 35018G23KT 08/M11 A302 RMK A01 T00801112  RH  025%=      5-min Rain = 0
KJTS 112325Z 35014G19KT 08/M11 A302 RMK A01 T00781111  RH  025%=      5-min Rain = 0
KJTS 112330Z 35012G17KT 08/M11 A3021 RMK A01 T00771110  RH  026%=      5-min Rain = 0
KJTS 112335Z 34012G18KT 08/M11 A3021 RMK A01 T00761107  RH  026%=      5-min Rain = 0
KJTS 112340Z 34010KT 07/M11 A3021 RMK A01 T00741106  RH  027%=      5-min Rain = 0
KJTS 112345Z 33011G18KT 07/M10 A3022 RMK A01 T00731104  RH  027%=      5-min Rain = 0
KJTS 112350Z 34013KT 07/M10 A3022 RMK A01 T00721104  RH  028%=      5-min Rain = 0
KJTS 112355Z 34015KT 07/M11 A3022 RMK A01 T00701105  RH  028%=      5-min Rain = 0
KJTS 120000Z 35012G17KT 07/M11 A3022 RMK A01 T00681106  RH  028%=      5-min Rain = 0
KJTS 120005Z 35013KT 07/M11 A3022 RMK A01 T00661109  RH  028%=      5-min Rain = 0
KJTS 120010Z 34012KT 06/M11 A3023 RMK A01 T00641110  RH  028%=      5-min Rain = 0
KJTS 120015Z 34011KT 06/M11 A3023 RMK A01 T00621111  RH  028%=      5-min Rain = 0
KJTS 120020Z 34009KT 06/M11 A3023 RMK A01 T00601111  RH  029%=      5-min Rain = 0
KJTS 120025Z 34008KT 06/M11 A3024 RMK A01 T00561112  RH  029%=      5-min Rain = 0
KJTS 120030Z 34007KT 05/M11 A3024 RMK A01 T00541112  RH  030%=      5-min Rain = 0
KJTS 120035Z 34007KT 05/M11 A3024 RMK A01 T00501112  RH  030%=      5-min Rain = 0
KJTS 120040Z 34006KT 05/M11 A3024 RMK A01 T00481112  RH  031%=      5-min Rain = 0
KJTS 120045Z 33007KT 04/M11 A3024 RMK A01 T00441112  RH  031%=      5-min Rain = 0
KJTS 120050Z 33006KT 04/M11 A3024 RMK A01 T00411113  RH  032%=      5-min Rain = 0
KJTS 120055Z 33006KT 04/M11 A3025 RMK A01 T00371113  RH  033%=      5-min Rain = 0
KJTS 120100Z 32006KT 03/M12 A3025 RMK A01 T00291116  RH  034%=      5-min Rain = 0
KJTS 120105Z 32007KT 02/M12 A3025 RMK A01 T00211116  RH  036%=      5-min Rain = 0
KJTS 120110Z 32007KT 02/M12 A3025 RMK A01 T00151116  RH  038%=      5-min Rain = 0
KJTS 120115Z 32007KT 01/M11 A3025 RMK A01 T00131114  RH  039%=      5-min Rain = 0
KJTS 120120Z 33007KT 02/M11 A3025 RMK A01 T00151111  RH  039%=      5-min Rain = 0
KJTS 120125Z 33007KT 02/M11 A3025 RMK A01 T00211108  RH  038%=      5-min Rain = 0
KJTS 120130Z 33007KT 02/M11 A3026 RMK A01 T00231109  RH  038%=      5-min Rain = 0
KJTS 120135Z 33006KT 02/M11 A3026 RMK A01 T00171110  RH  039%=      5-min Rain = 0
KJTS 120140Z 33006KT 02/M11 A3026 RMK A01 T00151109  RH  040%=      5-min Rain = 0
KJTS 120145Z 32006KT 02/M11 A3026 RMK A01 T00151108  RH  040%=      5-min Rain = 0
KJTS 120150Z 33008KT 02/M11 A3027 RMK A01 T00181105  RH  040%=      5-min Rain = 0
KJTS 120155Z 33007KT 02/M11 A3027 RMK A01 T00231105  RH  039%=      5-min Rain = 0
KJTS 120200Z 32007KT 02/M11 A3027 RMK A01 T00161108  RH  040%=      5-min Rain = 0
KJTS 120205Z 32008KT 01/M11 A3027 RMK A01 T00091108  RH  042%=      5-min Rain = 0
KJTS 120210Z 33007KT 01/M11 A3028 RMK A01 T00071108  RH  042%=      5-min Rain = 0
KJTS 120215Z 33007KT 01/M11 A3028 RMK A01 T00111105  RH  042%=      5-min Rain = 0
KJTS 120220Z 33007KT 02/M11 A3028 RMK A01 T00191105  RH  040%=      5-min Rain = 0
KJTS 120225Z 33007KT 02/M11 A3028 RMK A01 T00191105  RH  040%=      5-min Rain = 0
KJTS 120230Z 33006KT 02/M11 A3028 RMK A01 T00171106  RH  040%=      5-min Rain = 0
KJTS 120235Z 34006KT 01/M11 A3029 RMK A01 T00131106  RH  041%=      5-min Rain = 0
KJTS 120240Z 35006KT 01/M11 A3029 RMK A01 T00121105  RH  042%=      5-min Rain = 0
KJTS 120245Z 35007KT 02/M10 A3029 RMK A01 T00151103  RH  042%=      5-min Rain = 0
KJTS 120250Z 35006KT 02/M10 A3029 RMK A01 T00201102  RH  041%=      5-min Rain = 0
KJTS 120255Z 35007KT 02/M10 A3029 RMK A01 T00201102  RH  041%=      5-min Rain = 0
KJTS 120300Z 35007KT 02/M10 A3029 RMK A01 T00181102  RH  041%=      5-min Rain = 0
KJTS 120305Z 36007KT 02/M10 A3029 RMK A01 T00161102  RH  042%=      5-min Rain = 0
KJTS 120310Z 35008KT 02/M10 A3029 RMK A01 T00171100  RH  042%=      5-min Rain = 0
KJTS 120315Z 36009KT 02/M10 A3029 RMK A01 T00201099  RH  041%=      5-min Rain = 0
KJTS 120320Z 00010KT 02/M10 A3029 RMK A01 T00241098  RH  041%=      5-min Rain = 0
KJTS 120325Z 01010KT 03/M10 A3029 RMK A01 T00251098  RH  040%=      5-min Rain = 0
KJTS 120330Z 36008KT 02/M10 A3029 RMK A01 T00221098  RH  041%=      5-min Rain = 0
KJTS 120335Z 35009KT 02/M10 A3029 RMK A01 T00221097  RH  042%=      5-min Rain = 0
KJTS 120340Z 00009KT 02/M10 A3029 RMK A01 T00211097  RH  042%=      5-min Rain = 0
KJTS 120345Z 01009KT 02/M10 A3029 RMK A01 T00211097  RH  042%=      5-min Rain = 0
KJTS 120350Z 00008KT 02/M10 A3029 RMK A01 T00181097  RH  043%=      5-min Rain = 0
KJTS 120355Z 36008KT 02/M10 A3029 RMK A01 T00161096  RH  044%=      5-min Rain = 0
KJTS 120400Z 36007KT 01/M10 A3029 RMK A01 T00141096  RH  044%=      5-min Rain = 0
KJTS 120405Z 36007KT 01/M10 A303 RMK A01 T00131096  RH  045%=      5-min Rain = 0
KJTS 120410Z 36006KT 01/M10 A303 RMK A01 T00111097  RH  045%=      5-min Rain = 0
KJTS 120415Z 00006KT 01/M10 A303 RMK A01 T00081097  RH  046%=      5-min Rain = 0
KJTS 120420Z 01006KT 01/M10 A303 RMK A01 T00061097  RH  047%=      5-min Rain = 0
KJTS 120425Z 01006KT 00/M10 A303 RMK A01 T00031098  RH  047%=      5-min Rain = 0
KJTS 120430Z 01006KT 00/M10 A303 RMK A01 T00011098  RH  048%=      5-min Rain = 0
KJTS 120435Z 00006KT M01/M10 A303 RMK A01 T10051100  RH  049%=      5-min Rain = 0
KJTS 120440Z 01006KT M01/M10 A303 RMK A01 T10081100  RH  050%=      5-min Rain = 0
KJTS 120445Z 01005KT M01/M10 A303 RMK A01 T10071099  RH  050%=      5-min Rain = 0
KJTS 120450Z 02005KT M00/M10 A303 RMK A01 T10041098  RH  050%=      5-min Rain = 0
KJTS 120455Z 01005KT M00/M10 A303 RMK A01 T10021098  RH  049%=      5-min Rain = 0
KJTS 120500Z 02005KT M00/M10 A303 RMK A01 T10031098  RH  049%=      5-min Rain = 0
KJTS 120505Z 02004KT M00/M10 A303 RMK A01 T10021097  RH  049%=      5-min Rain = 0
KJTS 120510Z 02004KT M00/M10 A303 RMK A01 T10021098  RH  049%=      5-min Rain = 0
KJTS 120515Z 00004KT M01/M10 A303 RMK A01 T10061099  RH  050%=      5-min Rain = 0
KJTS 120520Z 36004KT M01/M10 A303 RMK A01 T10091099  RH  051%=      5-min Rain = 0
KJTS 120525Z 33004KT M01/M10 A303 RMK A01 T10101101  RH  051%=      5-min Rain = 0
KJTS 120530Z 33004KT M01/M10 A303 RMK A01 T10141101  RH  052%=      5-min Rain = 0
KJTS 120535Z 32003KT M02/M10 A303 RMK A01 T10151099  RH  053%=      5-min Rain = 0
KJTS 120540Z 34004KT M01/M10 A303 RMK A01 T10131099  RH  053%=      5-min Rain = 0
KJTS 120545Z 34004KT M01/M10 A303 RMK A01 T10141099  RH  053%=      5-min Rain = 0
KJTS 120550Z 34003KT M01/M10 A303 RMK A01 T10141099  RH  053%=      5-min Rain = 0
KJTS 120555Z 00003KT M02/M10 A3029 RMK A01 T10151099  RH  054%=      5-min Rain = 0

Page generated in 0.0339 seconds.